메인 페이지
METAR-TAF:

METAR-TAF

공항 :

테헤란, 이란

테헤란 메흐라바드 국제공항

위도: 35-41N, 경도: 051-21E, 고도: 1204m

현재 날씨관측

예보는 28분 전, 05:30시(UTC)에 발표되었습니다.
무풍
온도 9°C
습도 53%
기압 1016 hPa
시정: 8000m
고도 10000ft 상공 구름 조금

METAR: OIII 200530Z 00000KT 8000 FEW100 09/00 Q1015 A2999

시각: 09:28 (05:58 UTC)

예보

예보는 28분 전, 05:30시(UTC)에 발표되었습니다.
예보 대상 시간: 20일 06시부터 21일 12시까지 (UTC)
북북서8kt
시정 10km 이상
1500m 미만 상공 구름 및 적란운 없음
일시적
21일 06시부터 21일 12시까지 (UTC)
고도 3500ft 상공 구름 조금, 타워링 적운.
고도 4000ft 상공 구름 보통
고도 10000ft 상공 구름 많음

TAF: OIII 200530Z 2006/2112 33004MPS CAVOK TEMPO 2106/2112 FEW035TCU SCT040 BKN100

4,000개 이상의 공항 관측 자료 및 예보 (METAR 및 TAF 보고).

지도상에서 검색 가능한 기상관측소가 노란 점과 빨간 점으로 표시되어 있습니다.

기상관측소 명을 보려면 표시 위로 마우스를 이동하세요.

날씨 관측과 예보를 보려면 클릭하세요.

지도 변경 : 확대하려면 엑스 표시가 있는 녹색 버튼, 축소하려면 빼기 표시가 있는 녹색 버튼, 다음 페이지의 지도를 보려면 녹색 화살표를 클릭하세요.


METAR-TAF: